createdAt,value
2024-03-01T00:00:02.582Z,91.41
2024-03-01T00:02:34.948Z,91.42
2024-03-01T00:05:02.912Z,91.41
2024-03-01T00:07:31.238Z,91.42
2024-03-01T00:09:59.125Z,91.41
2024-03-01T00:12:26.934Z,91.39
2024-03-01T00:14:54.765Z,91.37
2024-03-01T00:17:22.646Z,91.34
2024-03-01T00:19:50.721Z,91.32
2024-03-01T00:22:19.495Z,91.32
2024-03-01T00:24:47.810Z,91.30
2024-03-01T00:27:15.528Z,91.31
2024-03-01T00:29:43.535Z,91.31
2024-03-01T00:32:11.215Z,91.30
2024-03-01T00:34:38.984Z,91.29
2024-03-01T00:37:06.792Z,91.27
2024-03-01T00:39:34.687Z,91.28
2024-03-01T00:42:02.505Z,91.28
2024-03-01T00:44:30.281Z,91.25
2024-03-01T00:46:58.047Z,91.25
2024-03-01T00:49:26.355Z,91.24
2024-03-01T00:51:54.092Z,91.24
2024-03-01T00:54:21.878Z,91.27
2024-03-01T00:56:50.121Z,91.26
2024-03-01T00:59:22.241Z,91.26
2024-03-01T01:01:50.775Z,91.26
2024-03-01T01:04:18.764Z,91.28
2024-03-01T01:06:46.611Z,91.29
2024-03-01T01:09:14.323Z,91.29
2024-03-01T01:11:42.033Z,91.27
2024-03-01T01:14:09.783Z,91.25
2024-03-01T01:16:37.765Z,91.23
2024-03-01T01:19:05.551Z,91.22
2024-03-01T01:21:34.232Z,91.23
2024-03-01T01:24:02.227Z,91.23
2024-03-01T01:26:30.189Z,91.26
2024-03-01T01:28:57.938Z,91.27
2024-03-01T01:31:25.877Z,91.28
2024-03-01T01:33:53.837Z,91.29
2024-03-01T01:36:21.752Z,91.30
2024-03-01T01:38:49.597Z,91.29
2024-03-01T01:41:17.461Z,91.29
2024-03-01T01:43:45.247Z,91.27
2024-03-01T01:46:15.593Z,91.24
2024-03-01T01:48:44.858Z,91.24
2024-03-01T01:51:16.232Z,91.23
2024-03-01T01:53:44.802Z,91.24
2024-03-01T01:56:16.027Z,91.26
2024-03-01T01:58:45.843Z,91.24
2024-03-01T02:01:13.929Z,91.25
2024-03-01T02:03:42.225Z,91.26
2024-03-01T02:06:11.221Z,91.26
2024-03-01T02:08:39.689Z,91.25
2024-03-01T02:11:07.724Z,91.23
2024-03-01T02:13:35.511Z,91.23
2024-03-01T02:16:03.360Z,91.24
2024-03-01T02:18:34.447Z,91.23
2024-03-01T02:21:02.561Z,91.22
2024-03-01T02:23:30.767Z,91.21
2024-03-01T02:25:58.719Z,91.21
2024-03-01T02:28:26.825Z,91.22
2024-03-01T02:30:54.713Z,91.23
2024-03-01T02:33:22.557Z,91.22
2024-03-01T02:35:50.907Z,91.20
2024-03-01T02:38:18.636Z,91.17
2024-03-01T02:40:46.369Z,91.17
2024-03-01T02:43:14.222Z,91.17
2024-03-01T02:45:42.093Z,91.17
2024-03-01T02:48:10.079Z,91.18
2024-03-01T02:50:37.867Z,91.17
2024-03-01T02:53:06.151Z,91.17
2024-03-01T02:55:34.103Z,91.16
2024-03-01T02:58:02.611Z,91.16
2024-03-01T03:00:30.464Z,91.18
2024-03-01T03:02:58.162Z,91.19
2024-03-01T03:05:26.087Z,91.17
2024-03-01T03:07:53.970Z,91.18
2024-03-01T03:10:22.222Z,91.19
2024-03-01T03:12:50.470Z,91.20
2024-03-01T03:15:18.636Z,91.21
2024-03-01T03:17:46.598Z,91.21
2024-03-01T03:20:16.648Z,91.22
2024-03-01T03:22:48.610Z,91.22
2024-03-01T03:25:16.861Z,91.24
2024-03-01T03:27:44.968Z,91.23
2024-03-01T03:30:13.539Z,91.23
2024-03-01T03:32:42.028Z,91.22
2024-03-01T03:35:09.804Z,91.24
2024-03-01T03:37:37.641Z,91.24
2024-03-01T03:40:15.836Z,91.24
2024-03-01T03:42:44.980Z,91.26
2024-03-01T03:45:12.942Z,91.29
2024-03-01T03:47:40.726Z,91.32
2024-03-01T03:50:09.551Z,91.35
2024-03-01T03:52:38.075Z,91.34
2024-03-01T03:55:07.353Z,91.32
2024-03-01T03:57:36.249Z,91.33
2024-03-01T04:00:11.041Z,91.35
2024-03-01T04:02:39.271Z,91.37
2024-03-01T04:05:08.430Z,91.41
2024-03-01T04:07:36.632Z,91.45
2024-03-01T04:10:07.947Z,91.44
2024-03-01T04:12:37.638Z,91.44
2024-03-01T04:15:06.369Z,91.46
2024-03-01T04:17:35.506Z,91.48
2024-03-01T04:20:05.805Z,91.50
2024-03-01T04:22:33.565Z,91.52
2024-03-01T04:25:01.778Z,91.56
2024-03-01T04:27:31.891Z,91.59
2024-03-01T04:29:59.946Z,91.63
2024-03-01T04:32:29.361Z,91.67
2024-03-01T04:34:57.286Z,91.70
2024-03-01T04:37:25.065Z,91.68
2024-03-01T04:39:52.957Z,91.67
2024-03-01T04:42:20.662Z,91.69
2024-03-01T04:44:48.658Z,91.69
2024-03-01T04:47:16.389Z,91.67
2024-03-01T04:49:45.140Z,91.65
2024-03-01T04:52:13.024Z,91.62
2024-03-01T04:54:40.844Z,91.60
2024-03-01T04:57:09.238Z,91.58
2024-03-01T04:59:40.279Z,91.60
2024-03-01T05:02:08.559Z,91.58
2024-03-01T05:04:38.202Z,91.59
2024-03-01T05:07:07.255Z,91.60
2024-03-01T05:09:34.956Z,91.62
2024-03-01T05:12:02.678Z,91.61
2024-03-01T05:14:30.396Z,91.60
2024-03-01T05:16:58.045Z,91.59
2024-03-01T05:19:26.716Z,91.58
2024-03-01T05:21:54.642Z,91.57
2024-03-01T05:24:22.378Z,91.58
2024-03-01T05:26:50.176Z,91.58
2024-03-01T05:29:21.200Z,91.57
2024-03-01T05:31:49.227Z,91.54
2024-03-01T05:34:17.158Z,91.52
2024-03-01T05:36:45.014Z,91.53
2024-03-01T05:39:21.646Z,91.52
2024-03-01T05:41:49.533Z,91.51
2024-03-01T05:44:18.217Z,91.51
2024-03-01T05:46:46.109Z,91.49
2024-03-01T05:49:13.869Z,91.50
2024-03-01T05:51:41.953Z,91.54
2024-03-01T05:54:11.556Z,91.54
2024-03-01T05:56:39.425Z,91.55
2024-03-01T05:59:07.265Z,91.57
2024-03-01T06:01:35.974Z,91.58
2024-03-01T06:04:11.590Z,91.58
2024-03-01T06:06:39.589Z,91.59
2024-03-01T06:09:07.440Z,91.58
2024-03-01T06:11:35.224Z,91.56
2024-03-01T06:14:03.179Z,91.54
2024-03-01T06:16:31.123Z,91.55
2024-03-01T06:19:01.740Z,91.55
2024-03-01T06:21:30.255Z,91.55
2024-03-01T06:23:58.402Z,91.56
2024-03-01T06:26:26.135Z,91.57
2024-03-01T06:28:53.908Z,91.59
2024-03-01T06:31:21.678Z,91.64
2024-03-01T06:33:49.497Z,91.63
2024-03-01T06:36:17.221Z,91.63
2024-03-01T06:38:44.964Z,91.62
2024-03-01T06:41:13.237Z,91.61
2024-03-01T06:43:41.059Z,91.58
2024-03-01T06:46:09.104Z,91.54
2024-03-01T06:48:37.136Z,91.49
2024-03-01T06:51:05.256Z,91.47
2024-03-01T06:53:33.005Z,91.47
2024-03-01T06:56:04.132Z,91.43
2024-03-01T06:58:32.203Z,91.37
2024-03-01T07:01:00.187Z,91.34
2024-03-01T07:03:28.072Z,91.27
2024-03-01T07:05:55.914Z,91.16
2024-03-01T07:08:23.644Z,91.02
2024-03-01T07:10:53.877Z,90.89
2024-03-01T07:13:22.545Z,90.68
2024-03-01T07:15:50.468Z,90.33
2024-03-01T07:18:18.234Z,89.97
2024-03-01T07:20:48.750Z,89.51
2024-03-01T07:23:17.321Z,89.17
2024-03-01T07:25:45.101Z,89.00
2024-03-01T07:28:13.020Z,88.74
2024-03-01T07:30:41.318Z,88.34
2024-03-01T07:33:09.151Z,87.93
2024-03-01T07:35:38.808Z,87.74
2024-03-01T07:38:06.579Z,87.68
2024-03-01T07:40:34.328Z,87.57
2024-03-01T07:43:02.172Z,87.12
2024-03-01T07:45:30.162Z,87.04
2024-03-01T07:47:57.876Z,86.87
2024-03-01T07:50:25.787Z,86.67
2024-03-01T07:52:53.594Z,86.47
2024-03-01T07:55:21.882Z,86.00
2024-03-01T07:57:49.883Z,85.16
2024-03-01T08:00:18.200Z,84.59
2024-03-01T08:02:45.997Z,84.19
2024-03-01T08:05:13.683Z,84.29
2024-03-01T08:07:41.362Z,84.33
2024-03-01T08:10:16.289Z,84.40
2024-03-01T08:12:44.242Z,84.15
2024-03-01T08:15:26.200Z,83.79
2024-03-01T08:17:53.986Z,83.23
2024-03-01T08:20:50.887Z,83.07
2024-03-01T08:23:18.577Z,83.12
2024-03-01T08:25:46.548Z,83.14
2024-03-01T08:28:21.466Z,82.58
2024-03-01T08:30:49.423Z,82.31
2024-03-01T08:33:19.639Z,82.15
2024-03-01T08:35:48.434Z,81.49
2024-03-01T08:38:41.998Z,81.37
2024-03-01T08:41:11.647Z,81.36
2024-03-01T08:43:42.712Z,80.82
2024-03-01T08:46:36.929Z,80.57
2024-03-01T08:49:33.692Z,80.71
2024-03-01T08:52:01.399Z,80.33
2024-03-01T08:54:29.357Z,80.17
2024-03-01T08:57:05.692Z,80.05
2024-03-01T08:59:44.272Z,79.78
2024-03-01T09:02:27.472Z,79.48
2024-03-01T09:04:55.313Z,79.21
2024-03-01T09:07:28.803Z,78.92
2024-03-01T09:09:57.076Z,78.49
2024-03-01T09:12:27.619Z,78.69
2024-03-01T09:15:05.306Z,78.78
2024-03-01T09:17:33.198Z,78.99
2024-03-01T09:20:01.521Z,78.97
2024-03-01T09:22:30.442Z,79.15
2024-03-01T09:24:58.393Z,78.94
2024-03-01T09:27:34.045Z,78.40
2024-03-01T09:30:16.367Z,77.51
2024-03-01T09:32:44.254Z,77.02
2024-03-01T09:35:12.023Z,76.46
2024-03-01T09:37:39.732Z,75.51
2024-03-01T09:40:33.936Z,75.32
2024-03-01T09:43:11.399Z,75.33
2024-03-01T09:46:03.770Z,75.58
2024-03-01T09:48:49.621Z,75.87
2024-03-01T09:51:23.894Z,75.57
2024-03-01T09:54:11.837Z,75.93
2024-03-01T09:57:19.940Z,75.96
2024-03-01T09:59:55.608Z,75.61
2024-03-01T10:02:42.253Z,75.43
2024-03-01T10:05:39.181Z,75.64
2024-03-01T10:08:42.236Z,75.38
2024-03-01T10:11:32.746Z,75.06
2024-03-01T10:14:27.777Z,74.59
2024-03-01T10:17:03.710Z,74.31
2024-03-01T10:19:53.872Z,73.68
2024-03-01T10:22:34.088Z,73.67
2024-03-01T10:25:26.665Z,73.60
2024-03-01T10:28:05.040Z,73.05
2024-03-01T10:30:41.193Z,72.33
2024-03-01T10:33:27.507Z,71.74
2024-03-01T10:35:55.549Z,71.60
2024-03-01T10:38:38.422Z,71.10
2024-03-01T10:41:31.090Z,70.40
2024-03-01T10:44:41.681Z,69.38
2024-03-01T10:47:21.564Z,68.02
2024-03-01T10:50:08.140Z,64.94
2024-03-01T10:52:45.801Z,65.04
2024-03-01T10:55:25.668Z,65.01
2024-03-01T10:58:02.985Z,63.87
2024-03-01T11:00:36.309Z,63.83
2024-03-01T11:03:28.208Z,64.25
2024-03-01T11:06:10.471Z,64.75
2024-03-01T11:08:52.967Z,65.06
2024-03-01T11:11:23.662Z,64.69
2024-03-01T11:13:56.336Z,64.85
2024-03-01T11:16:29.104Z,65.34
2024-03-01T11:19:01.608Z,65.74
2024-03-01T11:21:32.895Z,66.05
2024-03-01T11:24:06.367Z,65.90
2024-03-01T11:26:44.349Z,66.04
2024-03-01T11:29:37.592Z,66.37
2024-03-01T11:32:20.690Z,66.76
2024-03-01T11:35:08.394Z,66.63
2024-03-01T11:38:14.969Z,66.83
2024-03-01T11:41:32.030Z,66.98
2024-03-01T11:44:05.576Z,67.52
2024-03-01T11:46:52.952Z,67.75
2024-03-01T11:49:44.331Z,67.27
2024-03-01T11:52:27.766Z,66.82
2024-03-01T11:55:14.434Z,66.11
2024-03-01T11:58:10.266Z,66.26
2024-03-01T12:00:53.917Z,66.54
2024-03-01T12:03:39.200Z,66.72
2024-03-01T12:06:52.470Z,67.02
2024-03-01T12:09:48.093Z,67.55
2024-03-01T12:12:28.430Z,67.79
2024-03-01T12:14:59.859Z,67.89
2024-03-01T12:17:50.712Z,67.93
2024-03-01T12:20:18.469Z,68.14
2024-03-01T12:23:32.614Z,67.87
2024-03-01T12:26:01.274Z,68.09
2024-03-01T12:28:38.065Z,68.37
2024-03-01T12:31:26.528Z,68.52
2024-03-01T12:34:16.230Z,68.48
2024-03-01T12:37:13.806Z,68.53
2024-03-01T12:39:45.988Z,68.39
2024-03-01T12:42:27.090Z,68.34
2024-03-01T12:45:35.397Z,68.62
2024-03-01T12:48:25.714Z,68.87
2024-03-01T12:51:02.409Z,69.18
2024-03-01T12:53:52.285Z,69.04
2024-03-01T12:56:38.944Z,69.21
2024-03-01T12:59:32.438Z,69.48
2024-03-01T13:02:09.435Z,69.80
2024-03-01T13:04:53.168Z,69.92
2024-03-01T13:07:23.505Z,70.09
2024-03-01T13:09:54.549Z,70.33
2024-03-01T13:12:26.572Z,70.59
2024-03-01T13:15:01.514Z,70.74
2024-03-01T13:17:42.310Z,70.81
2024-03-01T13:20:26.907Z,70.76
2024-03-01T13:23:17.336Z,70.84
2024-03-01T13:25:56.685Z,70.63
2024-03-01T13:28:28.373Z,70.43
2024-03-01T13:31:06.363Z,70.26
2024-03-01T13:33:37.377Z,70.37
2024-03-01T13:36:12.312Z,70.48
2024-03-01T13:39:11.880Z,70.38
2024-03-01T13:41:45.592Z,70.42
2024-03-01T13:44:39.711Z,70.47
2024-03-01T13:47:19.189Z,70.70
2024-03-01T13:49:59.465Z,70.84
2024-03-01T13:52:32.864Z,71.15
2024-03-01T13:55:00.853Z,71.25
2024-03-01T13:57:28.696Z,71.35
2024-03-01T13:59:56.999Z,71.42
2024-03-01T14:02:27.258Z,71.64
2024-03-01T14:05:02.142Z,71.86
2024-03-01T14:07:29.971Z,72.12
2024-03-01T14:10:00.456Z,72.36
2024-03-01T14:12:28.368Z,72.44
2024-03-01T14:14:56.136Z,72.48
2024-03-01T14:17:24.408Z,72.72
2024-03-01T14:19:53.685Z,72.92
2024-03-01T14:22:21.945Z,73.06
2024-03-01T14:24:49.730Z,73.28
2024-03-01T14:27:17.530Z,73.36
2024-03-01T14:29:45.819Z,73.65
2024-03-01T14:32:15.295Z,73.77
2024-03-01T14:34:43.324Z,73.98
2024-03-01T14:37:11.521Z,74.10
2024-03-01T14:39:41.543Z,74.24
2024-03-01T14:42:24.742Z,74.42
2024-03-01T14:44:54.171Z,74.73
2024-03-01T14:47:25.095Z,74.71
2024-03-01T14:49:56.590Z,74.69
2024-03-01T14:52:24.442Z,74.69
2024-03-01T14:54:52.225Z,74.62
2024-03-01T14:57:19.989Z,74.59
2024-03-01T14:59:47.748Z,74.57
2024-03-01T15:02:17.367Z,74.57
2024-03-01T15:04:45.292Z,74.70
2024-03-01T15:07:12.979Z,74.87
2024-03-01T15:09:45.555Z,75.03
2024-03-01T15:12:14.167Z,75.24
2024-03-01T15:14:41.878Z,75.54
2024-03-01T15:17:09.961Z,75.77
2024-03-01T15:19:39.487Z,76.03
2024-03-01T15:22:10.812Z,76.29
2024-03-01T15:24:38.714Z,76.46
2024-03-01T15:27:07.390Z,76.81
2024-03-01T15:29:35.636Z,77.05
2024-03-01T15:32:03.456Z,77.34
2024-03-01T15:34:31.238Z,77.73
2024-03-01T15:36:59.176Z,77.95
2024-03-01T15:39:27.530Z,78.11
2024-03-01T15:41:55.363Z,78.36
2024-03-01T15:44:26.003Z,78.52
2024-03-01T15:46:53.947Z,78.76
2024-03-01T15:49:21.844Z,79.28
2024-03-01T15:51:49.886Z,79.43
2024-03-01T15:54:18.843Z,79.71
2024-03-01T15:56:46.618Z,79.89
2024-03-01T15:59:14.566Z,80.00
2024-03-01T16:01:42.372Z,80.09
2024-03-01T16:04:10.270Z,80.06
2024-03-01T16:06:39.277Z,80.26
2024-03-01T16:09:09.907Z,80.35
2024-03-01T16:11:41.893Z,80.55
2024-03-01T16:14:13.122Z,80.69
2024-03-01T16:16:41.151Z,80.97
2024-03-01T16:19:09.095Z,81.04
2024-03-01T16:21:36.957Z,81.22
2024-03-01T16:24:07.081Z,81.53
2024-03-01T16:26:34.925Z,81.72
2024-03-01T16:29:02.796Z,81.79
2024-03-01T16:31:30.781Z,81.75
2024-03-01T16:33:58.980Z,81.91
2024-03-01T16:36:27.039Z,81.97
2024-03-01T16:38:55.073Z,82.01
2024-03-01T16:41:32.679Z,82.08
2024-03-01T16:44:04.694Z,82.32
2024-03-01T16:46:46.449Z,82.52
2024-03-01T16:49:40.934Z,82.57
2024-03-01T16:52:14.850Z,82.79
2024-03-01T16:54:47.058Z,82.87
2024-03-01T16:57:31.272Z,82.83
2024-03-01T17:00:00.305Z,82.83
2024-03-01T17:02:38.050Z,82.87
2024-03-01T17:05:33.019Z,82.91
2024-03-01T17:08:00.775Z,83.03
2024-03-01T17:10:35.243Z,83.18
2024-03-01T17:13:05.106Z,83.18
2024-03-01T17:15:33.170Z,83.25
2024-03-01T17:18:01.970Z,83.25
2024-03-01T17:20:30.698Z,83.28
2024-03-01T17:22:58.586Z,83.32
2024-03-01T17:25:26.476Z,83.33
2024-03-01T17:27:54.232Z,83.27
2024-03-01T17:30:22.055Z,83.30
2024-03-01T17:32:50.353Z,83.34
2024-03-01T17:35:22.291Z,83.37
2024-03-01T17:37:50.388Z,83.39
2024-03-01T17:40:19.467Z,83.43
2024-03-01T17:42:47.989Z,83.42
2024-03-01T17:45:16.248Z,83.56
2024-03-01T17:47:44.415Z,83.58
2024-03-01T17:50:14.289Z,83.61
2024-03-01T17:52:42.254Z,83.61
2024-03-01T17:55:10.453Z,83.55
2024-03-01T17:57:40.174Z,83.49
2024-03-01T18:00:09.011Z,83.45
2024-03-01T18:02:36.753Z,83.43
2024-03-01T18:05:06.344Z,83.39
2024-03-01T18:07:34.236Z,83.40
2024-03-01T18:10:02.697Z,83.37
2024-03-01T18:12:30.529Z,83.36
2024-03-01T18:14:59.151Z,83.31
2024-03-01T18:17:27.300Z,83.35
2024-03-01T18:19:55.634Z,83.39
2024-03-01T18:22:23.597Z,83.38
2024-03-01T18:24:51.352Z,83.41
2024-03-01T18:27:19.492Z,83.39
2024-03-01T18:29:49.971Z,83.38
2024-03-01T18:32:18.125Z,83.34
2024-03-01T18:34:46.731Z,83.34
2024-03-01T18:37:14.599Z,83.39
2024-03-01T18:39:42.578Z,83.38
2024-03-01T18:42:10.415Z,83.45
2024-03-01T18:44:38.555Z,83.54
2024-03-01T18:47:06.532Z,83.54
2024-03-01T18:49:41.482Z,83.58
2024-03-01T18:52:10.552Z,83.59
2024-03-01T18:54:38.444Z,83.65
2024-03-01T18:57:07.542Z,83.66
2024-03-01T18:59:35.523Z,83.64
2024-03-01T19:02:05.870Z,83.63
2024-03-01T19:04:34.724Z,83.67
2024-03-01T19:07:02.675Z,83.67
2024-03-01T19:09:30.468Z,83.69
2024-03-01T19:11:58.221Z,83.74
2024-03-01T19:14:25.969Z,83.81
2024-03-01T19:16:53.762Z,83.84
2024-03-01T19:19:21.585Z,83.84
2024-03-01T19:21:49.638Z,83.88
2024-03-01T19:24:19.219Z,83.91
2024-03-01T19:26:46.967Z,83.92
2024-03-01T19:29:17.571Z,83.99
2024-03-01T19:31:45.500Z,84.02
2024-03-01T19:34:13.546Z,84.14
2024-03-01T19:36:41.758Z,84.13
2024-03-01T19:39:11.653Z,84.17
2024-03-01T19:41:39.695Z,84.19
2024-03-01T19:44:07.652Z,84.24
2024-03-01T19:46:35.528Z,84.28
2024-03-01T19:49:03.401Z,84.27
2024-03-01T19:51:31.874Z,84.24
2024-03-01T19:53:59.608Z,84.29
2024-03-01T19:56:27.346Z,84.29
2024-03-01T19:58:55.112Z,84.30
2024-03-01T20:01:23.062Z,84.31
2024-03-01T20:03:51.587Z,84.35
2024-03-01T20:06:24.502Z,84.35
2024-03-01T20:08:52.648Z,84.34
2024-03-01T20:11:20.443Z,84.35
2024-03-01T20:13:48.683Z,84.37
2024-03-01T20:16:16.466Z,84.39
2024-03-01T20:18:44.276Z,84.41
2024-03-01T20:21:12.194Z,84.42
2024-03-01T20:23:45.893Z,84.43
2024-03-01T20:26:18.020Z,84.43
2024-03-01T20:28:45.876Z,84.43
2024-03-01T20:31:13.699Z,84.46
2024-03-01T20:33:41.510Z,84.45
2024-03-01T20:36:09.308Z,84.46
2024-03-01T20:38:39.695Z,84.48
2024-03-01T20:41:07.422Z,84.50
2024-03-01T20:43:35.409Z,84.50
2024-03-01T20:46:03.387Z,84.53
2024-03-01T20:48:33.159Z,84.55
2024-03-01T20:51:00.869Z,84.54
2024-03-01T20:53:28.702Z,84.57
2024-03-01T20:55:56.547Z,84.55
2024-03-01T20:58:24.363Z,84.56
2024-03-01T21:00:52.187Z,84.56
2024-03-01T21:03:19.950Z,84.56
2024-03-01T21:05:47.733Z,84.61
2024-03-01T21:08:15.777Z,84.61
2024-03-01T21:10:43.627Z,84.61
2024-03-01T21:13:11.484Z,84.61
2024-03-01T21:15:39.179Z,84.61
2024-03-01T21:18:07.262Z,84.65
2024-03-01T21:20:35.021Z,84.63
2024-03-01T21:23:02.902Z,84.66
2024-03-01T21:25:30.664Z,84.70
2024-03-01T21:27:59.206Z,84.72
2024-03-01T21:30:29.890Z,84.74
2024-03-01T21:33:00.525Z,84.76
2024-03-01T21:35:29.145Z,84.80
2024-03-01T21:37:56.899Z,84.83
2024-03-01T21:40:27.956Z,84.86
2024-03-01T21:42:55.746Z,84.87
2024-03-01T21:45:23.772Z,84.87
2024-03-01T21:47:51.574Z,84.88
2024-03-01T21:50:19.367Z,84.88
2024-03-01T21:52:47.407Z,84.90
2024-03-01T21:55:15.448Z,84.89
2024-03-01T21:57:43.336Z,84.89
2024-03-01T22:00:11.784Z,84.93
2024-03-01T22:02:39.646Z,84.98
2024-03-01T22:05:07.559Z,85.01
2024-03-01T22:07:35.899Z,84.97
2024-03-01T22:10:03.757Z,84.96
2024-03-01T22:12:31.548Z,84.97
2024-03-01T22:14:59.387Z,84.95
2024-03-01T22:17:27.394Z,84.94
2024-03-01T22:19:55.454Z,84.94
2024-03-01T22:22:23.164Z,84.93
2024-03-01T22:24:51.053Z,84.92
2024-03-01T22:27:19.184Z,84.93
2024-03-01T22:29:50.711Z,84.95
2024-03-01T22:32:19.001Z,84.94
2024-03-01T22:34:47.138Z,84.96
2024-03-01T22:37:17.759Z,85.00
2024-03-01T22:39:48.964Z,85.00
2024-03-01T22:42:19.499Z,85.00
2024-03-01T22:44:47.414Z,85.05
2024-03-01T22:47:16.141Z,85.06
2024-03-01T22:49:46.915Z,85.15
2024-03-01T22:52:26.657Z,85.15
2024-03-01T22:54:55.464Z,85.17
2024-03-01T22:57:33.291Z,85.22
2024-03-01T23:00:23.096Z,85.30
2024-03-01T23:03:19.041Z,85.31
2024-03-01T23:05:50.772Z,85.47
2024-03-01T23:08:26.107Z,85.50
2024-03-01T23:10:55.634Z,85.51
2024-03-01T23:13:23.462Z,85.56
2024-03-01T23:15:52.068Z,85.66
2024-03-01T23:18:22.156Z,85.69
2024-03-01T23:20:50.412Z,85.78
2024-03-01T23:23:19.111Z,85.87
2024-03-01T23:25:48.397Z,85.88
2024-03-01T23:28:16.295Z,85.88
2024-03-01T23:30:44.277Z,85.89
2024-03-01T23:33:12.275Z,85.96
2024-03-01T23:35:41.166Z,86.05
2024-03-01T23:38:09.069Z,86.17
2024-03-01T23:40:37.719Z,86.19
2024-03-01T23:43:05.486Z,86.22
2024-03-01T23:45:33.324Z,86.23
2024-03-01T23:48:01.119Z,86.25
2024-03-01T23:50:28.893Z,86.24
2024-03-01T23:52:56.615Z,86.38
2024-03-01T23:55:25.576Z,86.37
2024-03-01T23:57:55.919Z,86.36
